createdAt,value
2023-04-27T00:00:11.491Z,16.56
2023-04-27T00:00:33.167Z,16.55
2023-04-27T00:00:56.000Z,16.54
2023-04-27T00:01:17.669Z,16.51
2023-04-27T00:01:39.415Z,16.55
2023-04-27T00:02:01.933Z,16.57
2023-04-27T00:02:23.902Z,16.60
2023-04-27T00:02:46.799Z,16.57
2023-04-27T00:03:08.770Z,16.58
2023-04-27T00:03:30.940Z,16.42
2023-04-27T00:03:53.326Z,16.57
2023-04-27T00:04:16.645Z,16.58
2023-04-27T00:04:38.793Z,16.58
2023-04-27T00:05:02.516Z,16.48
2023-04-27T00:05:24.583Z,16.60
2023-04-27T00:05:47.393Z,16.62
2023-04-27T00:06:09.645Z,16.64
2023-04-27T00:06:32.536Z,16.61
2023-04-27T00:06:54.357Z,16.59
2023-04-27T00:07:15.939Z,16.52
2023-04-27T00:07:38.558Z,16.53
2023-04-27T00:08:00.245Z,16.49
2023-04-27T00:08:22.080Z,16.48
2023-04-27T00:08:43.925Z,16.47
2023-04-27T00:09:06.746Z,16.48
2023-04-27T00:09:28.296Z,16.52
2023-04-27T00:09:51.770Z,16.54
2023-04-27T00:10:15.748Z,16.54
2023-04-27T00:10:37.443Z,16.57
2023-04-27T00:10:59.383Z,16.58
2023-04-27T00:11:22.576Z,16.56
2023-04-27T00:11:45.314Z,16.57
2023-04-27T00:12:07.073Z,16.56
2023-04-27T00:12:28.937Z,16.57
2023-04-27T00:12:51.564Z,16.47
2023-04-27T00:13:58.762Z,16.50
2023-04-27T00:14:21.529Z,16.50
2023-04-27T00:14:43.226Z,16.49
2023-04-27T00:15:05.963Z,16.49
2023-04-27T00:15:27.854Z,16.47
2023-04-27T00:15:50.609Z,16.46
2023-04-27T00:16:12.293Z,16.42
2023-04-27T00:16:34.128Z,16.40
2023-04-27T00:16:56.234Z,16.40
2023-04-27T00:17:18.823Z,16.38
2023-04-27T00:17:40.900Z,16.41
2023-04-27T00:18:02.717Z,16.43
2023-04-27T00:18:24.404Z,16.42
2023-04-27T00:18:46.003Z,16.40
2023-04-27T00:19:08.949Z,16.43
2023-04-27T00:19:30.696Z,16.38
2023-04-27T00:19:52.364Z,16.40
2023-04-27T00:20:14.117Z,16.42
2023-04-27T00:20:36.681Z,16.44
2023-04-27T00:20:58.515Z,16.31
2023-04-27T00:21:20.646Z,16.43
2023-04-27T00:21:42.568Z,16.42
2023-04-27T00:22:05.173Z,16.45
2023-04-27T00:22:26.846Z,16.48
2023-04-27T00:22:48.473Z,16.42
2023-04-27T00:23:10.296Z,16.42
2023-04-27T00:23:32.865Z,16.31
2023-04-27T00:23:54.720Z,16.42
2023-04-27T00:24:16.431Z,16.45
2023-04-27T00:24:38.069Z,16.47
2023-04-27T00:25:00.778Z,16.49
2023-04-27T00:25:23.728Z,16.49
2023-04-27T00:25:45.400Z,16.48
2023-04-27T00:26:07.075Z,16.49
2023-04-27T00:26:29.618Z,16.53
2023-04-27T00:26:51.366Z,16.55
2023-04-27T00:27:13.518Z,16.52
2023-04-27T00:27:35.682Z,16.51
2023-04-27T00:27:59.699Z,16.57
2023-04-27T00:28:21.605Z,16.59
2023-04-27T00:28:43.189Z,16.58
2023-04-27T00:29:04.799Z,16.58
2023-04-27T00:29:27.460Z,16.56
2023-04-27T00:29:49.305Z,16.53
2023-04-27T00:30:11.367Z,16.59
2023-04-27T00:30:32.983Z,16.61
2023-04-27T00:30:56.517Z,16.58
2023-04-27T00:31:19.460Z,16.57
2023-04-27T00:31:41.093Z,16.58
2023-04-27T00:32:02.860Z,16.64
2023-04-27T00:32:25.650Z,16.61
2023-04-27T00:32:47.876Z,16.58
2023-04-27T00:33:11.282Z,16.58
2023-04-27T00:33:32.855Z,16.46
2023-04-27T00:33:55.415Z,16.52
2023-04-27T00:34:18.226Z,16.47
2023-04-27T00:34:42.494Z,16.48
2023-04-27T00:35:04.688Z,16.49
2023-04-27T00:35:27.581Z,16.46
2023-04-27T00:35:49.220Z,16.45
2023-04-27T00:36:10.909Z,16.43
2023-04-27T00:36:33.674Z,16.44
2023-04-27T00:36:56.271Z,16.42
2023-04-27T00:37:18.707Z,16.43
2023-04-27T00:37:41.057Z,16.46
2023-04-27T00:38:03.088Z,16.43
2023-04-27T00:38:26.142Z,16.43
2023-04-27T00:38:47.794Z,16.37
2023-04-27T00:39:09.523Z,16.43
2023-04-27T00:39:34.235Z,16.44
2023-04-27T00:39:56.293Z,16.41
2023-04-27T00:40:19.082Z,16.40
2023-04-27T00:40:43.090Z,16.40
2023-04-27T00:41:06.539Z,16.38
2023-04-27T00:41:28.175Z,16.35
2023-04-27T00:41:49.865Z,16.36
2023-04-27T00:42:15.152Z,16.34
2023-04-27T00:42:37.772Z,16.38
2023-04-27T00:42:59.474Z,16.41
2023-04-27T00:43:21.192Z,16.45
2023-04-27T00:43:44.365Z,16.45
2023-04-27T00:44:06.328Z,16.46
2023-04-27T00:44:30.233Z,16.41
2023-04-27T00:44:51.818Z,16.39
2023-04-27T00:45:14.367Z,16.37
2023-04-27T00:45:41.422Z,16.33
2023-04-27T00:46:04.461Z,16.38
2023-04-27T00:46:27.866Z,16.35
2023-04-27T00:46:49.812Z,16.40
2023-04-27T00:47:12.176Z,16.25
2023-04-27T00:47:35.786Z,16.42
2023-04-27T00:47:58.592Z,16.42
2023-04-27T00:48:20.796Z,16.42
2023-04-27T00:48:43.047Z,16.43
2023-04-27T00:49:05.827Z,16.43
2023-04-27T00:49:27.814Z,16.39
2023-04-27T00:49:49.592Z,16.40
2023-04-27T00:50:12.159Z,16.34
2023-04-27T00:50:34.790Z,16.36
2023-04-27T00:50:57.474Z,16.39
2023-04-27T00:51:19.213Z,16.36
2023-04-27T00:51:40.908Z,16.30
2023-04-27T00:52:02.931Z,16.34
2023-04-27T00:52:27.803Z,16.28
2023-04-27T00:52:49.779Z,16.36
2023-04-27T00:53:11.942Z,16.34
2023-04-27T00:53:36.110Z,16.38
2023-04-27T00:53:59.646Z,16.38
2023-04-27T00:54:21.369Z,16.38
2023-04-27T00:54:43.339Z,16.35
2023-04-27T00:55:08.359Z,16.38
2023-04-27T00:55:30.914Z,16.36
2023-04-27T00:55:55.376Z,16.34
2023-04-27T00:56:17.496Z,16.36
2023-04-27T00:56:39.406Z,16.33
2023-04-27T00:57:02.284Z,16.35
2023-04-27T00:57:23.880Z,16.31
2023-04-27T00:57:45.565Z,16.34
2023-04-27T00:58:09.277Z,16.33
2023-04-27T00:58:31.242Z,16.32
2023-04-27T00:58:53.571Z,16.31
2023-04-27T00:59:15.983Z,16.34
2023-04-27T00:59:38.620Z,16.38
2023-04-27T01:00:01.016Z,16.32
2023-04-27T01:00:23.075Z,16.33
2023-04-27T01:00:44.677Z,16.21
2023-04-27T01:01:07.696Z,16.38
2023-04-27T01:01:30.345Z,16.39
2023-04-27T01:01:53.044Z,16.40
2023-04-27T01:02:15.039Z,16.31
2023-04-27T01:02:37.117Z,16.38
2023-04-27T01:03:01.211Z,16.37
2023-04-27T01:03:23.259Z,16.37
2023-04-27T01:03:45.310Z,16.37
2023-04-27T01:04:07.167Z,16.37
2023-04-27T01:04:29.992Z,16.37
2023-04-27T01:04:53.966Z,16.38
2023-04-27T01:05:15.742Z,16.32
2023-04-27T01:05:38.085Z,16.30
2023-04-27T01:06:01.612Z,16.32
2023-04-27T01:06:24.477Z,16.31
2023-04-27T01:06:46.226Z,16.26
2023-04-27T01:07:08.018Z,16.29
2023-04-27T01:07:30.686Z,16.26
2023-04-27T01:07:53.116Z,16.28
2023-04-27T01:08:14.944Z,16.29
2023-04-27T01:08:37.756Z,16.26
2023-04-27T01:09:00.466Z,16.25
2023-04-27T01:09:23.310Z,16.27
2023-04-27T01:09:45.202Z,16.19
2023-04-27T01:10:08.766Z,16.18
2023-04-27T01:10:31.531Z,16.19
2023-04-27T01:10:54.567Z,16.20
2023-04-27T01:11:17.211Z,16.19
2023-04-27T01:11:38.837Z,16.19
2023-04-27T01:12:03.282Z,16.18
2023-04-27T01:12:25.243Z,16.19
2023-04-27T01:12:47.737Z,16.22
2023-04-27T01:13:10.648Z,16.24
2023-04-27T01:13:34.416Z,16.27
2023-04-27T01:13:56.979Z,16.30
2023-04-27T01:14:21.005Z,16.23
2023-04-27T01:14:42.952Z,16.25
2023-04-27T01:15:07.512Z,16.29
2023-04-27T01:15:29.409Z,16.25
2023-04-27T01:15:51.040Z,16.23
2023-04-27T01:16:13.087Z,16.23
2023-04-27T01:16:36.121Z,16.20
2023-04-27T01:16:58.197Z,16.19
2023-04-27T01:17:19.810Z,16.17
2023-04-27T01:17:42.964Z,16.14
2023-04-27T01:18:05.766Z,16.14
2023-04-27T01:18:27.452Z,16.13
2023-04-27T01:18:51.418Z,16.12
2023-04-27T01:19:13.506Z,16.06
2023-04-27T01:19:36.539Z,16.09
2023-04-27T01:19:59.604Z,16.08
2023-04-27T01:20:22.160Z,16.07
2023-04-27T01:20:45.072Z,16.09
2023-04-27T01:21:07.262Z,16.07
2023-04-27T01:21:30.073Z,16.07
2023-04-27T01:21:53.592Z,16.03
2023-04-27T01:22:15.432Z,16.01
2023-04-27T01:22:37.213Z,16.01
2023-04-27T01:23:00.327Z,16.01
2023-04-27T01:23:24.004Z,16.02
2023-04-27T01:23:46.269Z,16.02
2023-04-27T01:24:09.021Z,16.03
2023-04-27T01:24:33.435Z,16.04
2023-04-27T01:24:55.196Z,16.01
2023-04-27T01:25:20.130Z,15.99
2023-04-27T01:25:41.784Z,16.01
2023-04-27T01:26:04.724Z,16.05
2023-04-27T01:26:26.800Z,16.06
2023-04-27T01:26:51.965Z,16.03
2023-04-27T01:27:13.845Z,16.01
2023-04-27T01:27:36.942Z,16.08
2023-04-27T01:27:58.595Z,16.06
2023-04-27T01:28:20.424Z,16.03
2023-04-27T01:28:42.001Z,16.08
2023-04-27T01:29:04.202Z,16.09
2023-04-27T01:29:26.828Z,16.09
2023-04-27T01:29:48.625Z,16.03
2023-04-27T01:30:10.621Z,15.94
2023-04-27T01:30:32.228Z,16.06
2023-04-27T01:30:55.147Z,16.06
2023-04-27T01:31:20.673Z,16.06
2023-04-27T01:31:43.444Z,16.08
2023-04-27T01:32:05.688Z,16.07
2023-04-27T01:32:28.359Z,16.07
2023-04-27T01:32:50.468Z,16.05
2023-04-27T01:33:14.197Z,16.04
2023-04-27T01:33:35.934Z,16.05
2023-04-27T01:33:58.450Z,16.05
2023-04-27T01:34:20.075Z,16.04
2023-04-27T01:34:42.600Z,16.04
2023-04-27T01:35:04.910Z,16.03
2023-04-27T01:35:28.458Z,16.08
2023-04-27T01:35:54.757Z,16.09
2023-04-27T01:36:16.775Z,16.09
2023-04-27T01:36:38.525Z,16.08
2023-04-27T01:37:01.085Z,16.07
2023-04-27T01:37:23.056Z,16.02
2023-04-27T01:37:45.990Z,16.04
2023-04-27T01:38:07.611Z,16.03
2023-04-27T01:38:33.312Z,16.01
2023-04-27T01:38:54.967Z,16.00
2023-04-27T01:39:16.675Z,15.96
2023-04-27T01:39:38.771Z,15.91
2023-04-27T01:40:03.036Z,15.98
2023-04-27T01:40:29.912Z,15.98
2023-04-27T01:40:51.551Z,15.97
2023-04-27T01:41:15.658Z,15.99
2023-04-27T01:41:37.355Z,15.98
2023-04-27T01:41:58.980Z,15.97
2023-04-27T01:42:21.579Z,15.97
2023-04-27T01:42:43.181Z,15.99
2023-04-27T01:43:05.192Z,15.97
2023-04-27T01:43:26.906Z,15.97
2023-04-27T01:43:49.957Z,15.87
2023-04-27T01:44:11.994Z,15.93
2023-04-27T01:44:33.737Z,15.95
2023-04-27T01:44:55.368Z,15.93
2023-04-27T01:45:17.002Z,15.99
2023-04-27T01:45:39.641Z,15.92
2023-04-27T01:46:06.057Z,15.89
2023-04-27T01:46:27.865Z,15.89
2023-04-27T01:46:49.654Z,15.84
2023-04-27T01:47:12.573Z,15.89
2023-04-27T01:47:35.582Z,15.91
2023-04-27T01:47:57.307Z,15.90
2023-04-27T01:48:19.138Z,15.84
2023-04-27T01:48:42.399Z,15.86
2023-04-27T01:49:05.971Z,15.89
2023-04-27T01:49:27.874Z,15.89
2023-04-27T01:49:51.202Z,15.86
2023-04-27T01:50:15.016Z,15.84
2023-04-27T01:50:36.646Z,15.83
2023-04-27T01:50:58.277Z,15.84
2023-04-27T01:51:20.581Z,15.86
2023-04-27T01:51:43.258Z,15.87
2023-04-27T01:52:04.853Z,15.83
2023-04-27T01:52:28.695Z,15.82
2023-04-27T01:52:50.619Z,15.81
2023-04-27T01:53:13.286Z,15.79
2023-04-27T01:53:36.301Z,15.76
2023-04-27T01:53:58.116Z,15.79
2023-04-27T01:54:20.719Z,15.72
2023-04-27T01:54:42.590Z,15.76
2023-04-27T01:55:06.272Z,15.36
2023-04-27T01:55:28.230Z,15.77
2023-04-27T01:55:49.948Z,15.75
2023-04-27T01:56:12.790Z,15.76
2023-04-27T01:56:35.077Z,15.64
2023-04-27T01:56:58.617Z,15.75
2023-04-27T01:57:20.311Z,15.73
2023-04-27T01:57:43.045Z,15.73
2023-04-27T01:58:04.766Z,15.68
2023-04-27T01:58:27.599Z,15.68
2023-04-27T01:58:49.270Z,15.68
2023-04-27T01:59:11.328Z,15.69
2023-04-27T01:59:34.031Z,15.67
2023-04-27T01:59:57.145Z,15.65
2023-04-27T02:00:19.543Z,15.72
2023-04-27T02:00:43.966Z,15.73
2023-04-27T02:01:06.627Z,15.71
2023-04-27T02:01:28.299Z,15.74
2023-04-27T02:01:50.036Z,15.75
2023-04-27T02:02:11.707Z,15.74
2023-04-27T02:02:33.657Z,15.69
2023-04-27T02:02:57.422Z,15.70
2023-04-27T02:03:19.475Z,15.68
2023-04-27T02:03:41.783Z,15.68
2023-04-27T02:04:04.284Z,15.66
2023-04-27T02:04:27.260Z,15.67
2023-04-27T02:04:49.068Z,15.65
2023-04-27T02:05:10.882Z,15.64
2023-04-27T02:05:32.466Z,15.64
2023-04-27T02:05:55.394Z,15.60
2023-04-27T02:06:17.211Z,15.62
2023-04-27T02:06:41.168Z,15.62
2023-04-27T02:07:03.038Z,15.62
2023-04-27T02:07:25.610Z,15.59
2023-04-27T02:07:47.203Z,15.59
2023-04-27T02:08:08.839Z,15.48
2023-04-27T02:08:30.561Z,15.59
2023-04-27T02:08:53.623Z,15.60
2023-04-27T02:09:16.501Z,15.60
2023-04-27T02:09:38.244Z,15.57
2023-04-27T02:09:59.894Z,15.54
2023-04-27T02:10:22.161Z,15.55
2023-04-27T02:10:44.759Z,15.57
2023-04-27T02:11:06.402Z,15.53
2023-04-27T02:11:28.146Z,15.50
2023-04-27T02:11:49.785Z,15.48
2023-04-27T02:12:11.617Z,15.43
2023-04-27T02:12:34.206Z,15.44
2023-04-27T02:12:56.906Z,15.41
2023-04-27T02:13:18.613Z,15.42
2023-04-27T02:13:40.423Z,15.42
2023-04-27T02:14:03.177Z,15.35
2023-04-27T02:14:27.924Z,15.43
2023-04-27T02:14:49.522Z,15.37
2023-04-27T02:15:11.188Z,15.36
2023-04-27T02:15:33.247Z,15.34
2023-04-27T02:15:56.188Z,15.40
2023-04-27T02:16:18.017Z,15.41
2023-04-27T02:16:39.754Z,15.38
2023-04-27T02:17:01.425Z,15.42
2023-04-27T02:17:24.055Z,15.42
2023-04-27T02:17:46.820Z,15.40
2023-04-27T02:18:08.967Z,15.43
2023-04-27T02:18:32.472Z,15.37
2023-04-27T02:18:55.509Z,15.35
2023-04-27T02:19:17.181Z,15.35
2023-04-27T02:19:38.916Z,15.40
2023-04-27T02:20:00.866Z,15.34
2023-04-27T02:20:23.662Z,15.35
2023-04-27T02:20:45.493Z,15.36
2023-04-27T02:21:09.364Z,15.34
2023-04-27T02:21:31.526Z,15.34
2023-04-27T02:21:54.104Z,15.32
2023-04-27T02:22:16.227Z,15.34
2023-04-27T02:22:41.797Z,15.32
2023-04-27T02:23:04.430Z,15.35
2023-04-27T02:23:26.187Z,15.25
2023-04-27T02:23:48.032Z,15.36
2023-04-27T02:24:11.015Z,15.32
2023-04-27T02:24:33.898Z,15.30
2023-04-27T02:24:55.819Z,15.29
2023-04-27T02:25:17.531Z,15.25
2023-04-27T02:25:42.748Z,15.24
2023-04-27T02:26:05.832Z,15.13
2023-04-27T02:26:29.441Z,15.21
2023-04-27T02:26:52.147Z,15.21
2023-04-27T02:27:13.746Z,15.22
2023-04-27T02:27:38.332Z,15.23
2023-04-27T02:28:00.882Z,15.22
2023-04-27T02:28:22.914Z,15.19
2023-04-27T02:28:45.154Z,15.16
2023-04-27T02:29:08.163Z,15.13
2023-04-27T02:29:32.339Z,15.12
2023-04-27T02:29:54.292Z,15.12
2023-04-27T02:30:17.900Z,15.13
2023-04-27T02:30:41.171Z,15.10
2023-04-27T02:31:04.266Z,15.07
2023-04-27T02:31:26.249Z,15.02
2023-04-27T02:31:47.980Z,14.95
2023-04-27T02:32:09.733Z,14.97
2023-04-27T02:32:33.295Z,15.00
2023-04-27T02:32:55.037Z,15.01
2023-04-27T02:33:17.147Z,15.01
2023-04-27T02:33:39.081Z,15.01
2023-04-27T02:34:01.755Z,15.02
2023-04-27T02:34:23.462Z,15.03
2023-04-27T02:34:46.466Z,15.04
2023-04-27T02:35:09.534Z,15.00
2023-04-27T02:35:33.561Z,15.01
2023-04-27T02:35:55.316Z,15.07
2023-04-27T02:36:16.931Z,15.08
2023-04-27T02:36:38.573Z,15.08
2023-04-27T02:37:01.304Z,15.12
2023-04-27T02:37:22.970Z,15.12
2023-04-27T02:37:44.780Z,15.08
2023-04-27T02:38:10.338Z,15.10
2023-04-27T02:38:34.112Z,15.05
2023-04-27T02:38:56.040Z,15.05
2023-04-27T02:39:18.969Z,15.07
2023-04-27T02:39:40.632Z,15.04
2023-04-27T02:40:03.984Z,15.04
2023-04-27T02:40:28.354Z,15.00
2023-04-27T02:40:53.666Z,15.03
2023-04-27T02:41:16.306Z,15.03
2023-04-27T02:41:37.928Z,14.97
2023-04-27T02:41:59.772Z,15.00
2023-04-27T02:42:21.981Z,15.00
2023-04-27T02:42:44.633Z,15.01
2023-04-27T02:43:06.220Z,14.89
2023-04-27T02:43:27.887Z,14.97
2023-04-27T02:43:50.452Z,14.95
2023-04-27T02:44:13.356Z,14.91
2023-04-27T02:44:34.988Z,14.98
2023-04-27T02:44:56.795Z,14.99
2023-04-27T02:45:18.464Z,15.01
2023-04-27T02:45:41.414Z,14.99
2023-04-27T02:46:03.271Z,14.99
2023-04-27T02:46:27.084Z,14.98
2023-04-27T02:46:50.015Z,14.92
2023-04-27T02:47:12.811Z,15.01
2023-04-27T02:47:36.070Z,15.03
2023-04-27T02:47:58.295Z,15.03
2023-04-27T02:48:20.430Z,15.06
2023-04-27T02:48:43.065Z,15.07
2023-04-27T02:49:04.735Z,15.02
2023-04-27T02:49:26.642Z,15.04
2023-04-27T02:49:48.374Z,14.99
2023-04-27T02:50:11.476Z,15.03
2023-04-27T02:50:33.206Z,15.03
2023-04-27T02:50:54.922Z,14.96
2023-04-27T02:51:17.524Z,14.96
2023-04-27T02:51:39.705Z,14.99
2023-04-27T02:52:01.400Z,14.99
2023-04-27T02:52:23.202Z,14.99
2023-04-27T02:52:45.923Z,14.93
2023-04-27T02:53:07.667Z,14.98
2023-04-27T02:53:29.343Z,14.99
2023-04-27T02:53:52.889Z,14.98
2023-04-27T02:54:14.553Z,14.96
2023-04-27T02:54:39.295Z,14.88
2023-04-27T02:55:01.047Z,14.95
2023-04-27T02:55:22.674Z,14.94
2023-04-27T02:55:48.168Z,14.94
2023-04-27T02:56:11.051Z,14.94
2023-04-27T02:56:32.725Z,14.96
2023-04-27T02:56:54.697Z,14.94
2023-04-27T02:57:16.363Z,14.91
2023-04-27T02:57:39.047Z,14.90
2023-04-27T02:58:00.953Z,14.83
2023-04-27T02:58:22.582Z,14.84
2023-04-27T02:58:44.886Z,14.84
2023-04-27T02:59:07.584Z,14.76
2023-04-27T02:59:29.266Z,14.79
2023-04-27T02:59:51.048Z,14.79
2023-04-27T03:00:13.560Z,14.84
2023-04-27T03:00:36.293Z,14.86
2023-04-27T03:00:57.953Z,14.83
2023-04-27T03:01:19.707Z,14.78
2023-04-27T03:01:41.643Z,14.84
2023-04-27T03:02:04.466Z,14.83
2023-04-27T03:02:26.183Z,14.83
2023-04-27T03:02:48.008Z,14.79
2023-04-27T03:03:10.038Z,14.76
2023-04-27T03:03:32.839Z,14.74
2023-04-27T03:03:54.853Z,14.73
2023-04-27T03:04:17.739Z,14.72
2023-04-27T03:04:39.518Z,14.72
2023-04-27T03:05:02.096Z,14.70
2023-04-27T03:05:26.041Z,14.73
2023-04-27T03:05:47.686Z,14.74
2023-04-27T03:06:09.366Z,14.75
2023-04-27T03:06:31.951Z,14.73
2023-04-27T03:06:53.496Z,14.72
2023-04-27T03:07:15.252Z,14.74
2023-04-27T03:07:36.888Z,14.73
2023-04-27T03:07:59.589Z,14.59
2023-04-27T03:08:21.181Z,14.74
2023-04-27T03:08:42.857Z,14.76
2023-04-27T03:09:05.552Z,14.73
2023-04-27T03:09:27.251Z,14.72
2023-04-27T03:09:50.310Z,14.72
2023-04-27T03:10:12.154Z,14.64
2023-04-27T03:10:33.741Z,14.72
2023-04-27T03:10:56.333Z,14.70
2023-04-27T03:11:18.010Z,14.70
2023-04-27T03:11:39.773Z,14.71
2023-04-27T03:12:02.816Z,14.73
2023-04-27T03:12:25.561Z,14.74
2023-04-27T03:12:47.224Z,14.72
2023-04-27T03:13:08.818Z,14.67
2023-04-27T03:13:30.402Z,14.69
2023-04-27T03:13:52.989Z,14.69
2023-04-27T03:14:14.665Z,14.67
2023-04-27T03:14:36.462Z,14.68
2023-04-27T03:15:00.008Z,14.65
2023-04-27T03:15:22.612Z,14.61
2023-04-27T03:15:44.315Z,14.67
2023-04-27T03:16:07.115Z,14.66
2023-04-27T03:16:28.929Z,14.70
2023-04-27T03:16:51.889Z,14.70
2023-04-27T03:17:14.779Z,14.67
2023-04-27T03:17:36.877Z,14.68
2023-04-27T03:17:58.763Z,14.66
2023-04-27T03:18:22.010Z,14.67
2023-04-27T03:18:43.706Z,14.66
2023-04-27T03:19:06.166Z,14.62
2023-04-27T03:19:28.900Z,14.62
2023-04-27T03:19:53.612Z,14.61
2023-04-27T03:20:19.154Z,14.63
2023-04-27T03:20:41.373Z,14.62
2023-04-27T03:21:07.476Z,14.65
2023-04-27T03:21:29.132Z,14.64
2023-04-27T03:21:51.011Z,14.62
2023-04-27T03:22:13.634Z,14.65
2023-04-27T03:22:37.260Z,14.64
2023-04-27T03:22:58.853Z,14.63
2023-04-27T03:23:20.589Z,14.49
2023-04-27T03:23:43.610Z,14.63
2023-04-27T03:24:06.001Z,14.63
2023-04-27T03:24:27.626Z,14.54
2023-04-27T03:24:50.667Z,14.62
2023-04-27T03:25:12.421Z,14.60
2023-04-27T03:25:35.003Z,14.60
2023-04-27T03:25:56.708Z,14.60
2023-04-27T03:26:18.657Z,14.50
2023-04-27T03:26:40.229Z,14.55
2023-04-27T03:27:03.230Z,14.48
2023-04-27T03:27:24.878Z,14.55
2023-04-27T03:27:46.494Z,14.58
2023-04-27T03:28:08.380Z,14.58
2023-04-27T03:28:29.978Z,14.61
2023-04-27T03:28:52.547Z,14.58
2023-04-27T03:29:14.658Z,14.55
2023-04-27T03:29:36.699Z,14.51
2023-04-27T03:29:59.712Z,14.53
2023-04-27T03:30:22.830Z,14.51
2023-04-27T03:30:44.475Z,14.51
2023-04-27T03:31:06.475Z,14.52
2023-04-27T03:31:28.117Z,14.50
2023-04-27T03:31:50.916Z,14.49
2023-04-27T03:32:12.712Z,14.51
2023-04-27T03:32:34.499Z,14.47
2023-04-27T03:32:56.425Z,14.45
2023-04-27T03:33:19.275Z,14.48
2023-04-27T03:33:41.204Z,14.47
2023-04-27T03:34:02.822Z,14.47
2023-04-27T03:34:24.473Z,14.36
2023-04-27T03:34:46.446Z,14.47
2023-04-27T03:35:10.114Z,14.43
2023-04-27T03:35:31.740Z,14.45
2023-04-27T03:35:56.968Z,14.48
2023-04-27T03:36:19.578Z,14.47
2023-04-27T03:36:41.319Z,14.45
2023-04-27T03:37:06.332Z,14.43
2023-04-27T03:37:32.638Z,14.42
2023-04-27T03:37:55.352Z,14.40
2023-04-27T03:38:17.105Z,14.37
2023-04-27T03:38:39.002Z,14.27
2023-04-27T03:39:01.241Z,14.40
2023-04-27T03:39:23.964Z,14.40
2023-04-27T03:39:45.735Z,14.40
2023-04-27T03:40:10.338Z,14.38
2023-04-27T03:40:31.943Z,14.40
2023-04-27T03:40:55.062Z,14.38
2023-04-27T03:41:16.719Z,14.36
2023-04-27T03:41:38.425Z,14.36
2023-04-27T03:42:00.108Z,14.34
2023-04-27T03:42:22.789Z,14.32
2023-04-27T03:42:44.961Z,14.31
2023-04-27T03:43:06.847Z,14.34
2023-04-27T03:43:29.070Z,14.34
2023-04-27T03:43:52.874Z,14.31
2023-04-27T03:44:15.816Z,14.30
2023-04-27T03:44:38.604Z,14.28
2023-04-27T03:45:01.119Z,14.26
2023-04-27T03:45:22.783Z,14.31
2023-04-27T03:45:45.421Z,14.31
2023-04-27T03:46:08.461Z,14.32
2023-04-27T03:46:30.302Z,14.27
2023-04-27T03:46:52.272Z,14.25
2023-04-27T03:47:14.870Z,14.23
2023-04-27T03:47:37.172Z,14.18
2023-04-27T03:47:58.888Z,14.15
2023-04-27T03:48:21.130Z,14.18
2023-04-27T03:48:43.961Z,14.20
2023-04-27T03:49:05.835Z,14.21
2023-04-27T03:49:28.065Z,14.23
2023-04-27T03:49:50.915Z,14.18
2023-04-27T03:50:13.479Z,14.23
2023-04-27T03:50:35.321Z,14.20
2023-04-27T03:50:56.959Z,14.21
2023-04-27T03:51:19.133Z,14.18
2023-04-27T03:51:43.941Z,14.19
2023-04-27T03:52:05.911Z,14.16
2023-04-27T03:52:29.482Z,14.15
2023-04-27T03:52:51.177Z,14.08
2023-04-27T03:53:13.514Z,14.10
2023-04-27T03:53:38.258Z,14.01
2023-04-27T03:54:01.333Z,14.09
2023-04-27T03:54:23.722Z,14.15
2023-04-27T03:54:45.489Z,14.10
2023-04-27T03:55:10.670Z,14.14
2023-04-27T03:55:37.584Z,14.13
2023-04-27T03:55:59.476Z,14.14
2023-04-27T03:56:22.727Z,14.15
2023-04-27T03:56:44.470Z,14.17
2023-04-27T03:57:06.623Z,14.15
2023-04-27T03:57:30.620Z,14.12
2023-04-27T03:57:53.204Z,13.99
2023-04-27T03:58:17.342Z,14.13
2023-04-27T03:59:04.613Z,14.17
2023-04-27T03:59:30.747Z,14.11
2023-04-27T03:59:52.531Z,14.06
2023-04-27T04:00:15.740Z,14.06
2023-04-27T04:00:37.962Z,14.02
2023-04-27T04:01:00.510Z,14.08
2023-04-27T04:01:24.764Z,14.10
2023-04-27T04:01:46.389Z,14.08
2023-04-27T04:02:09.542Z,14.09
2023-04-27T04:02:33.193Z,14.09
2023-04-27T04:02:55.119Z,14.10
2023-04-27T04:03:17.455Z,14.08
2023-04-27T04:03:39.519Z,14.07
2023-04-27T04:04:04.325Z,14.06
2023-04-27T04:04:27.038Z,14.03
2023-04-27T04:04:48.988Z,14.04
2023-04-27T04:05:10.948Z,14.04
2023-04-27T04:05:33.663Z,14.02
2023-04-27T04:05:55.315Z,14.04
2023-04-27T04:06:17.360Z,14.06
2023-04-27T04:06:40.067Z,14.06
2023-04-27T04:07:03.074Z,14.05
2023-04-27T04:07:24.718Z,14.05
2023-04-27T04:07:46.376Z,14.05
2023-04-27T04:08:09.729Z,14.05
2023-04-27T04:08:34.025Z,14.05
2023-04-27T04:08:58.009Z,14.05
2023-04-27T04:09:23.956Z,14.04
2023-04-27T04:09:46.852Z,14.03
2023-04-27T04:10:11.386Z,14.04
2023-04-27T04:10:33.082Z,14.04
2023-04-27T04:10:54.771Z,14.01
2023-04-27T04:11:17.501Z,14.04
2023-04-27T04:11:39.235Z,14.06
2023-04-27T04:12:02.040Z,14.06
2023-04-27T04:12:24.157Z,14.06
2023-04-27T04:12:46.856Z,14.07
2023-04-27T04:13:08.886Z,14.05
2023-04-27T04:13:31.584Z,14.04
2023-04-27T04:13:54.597Z,13.89
2023-04-27T04:14:16.327Z,14.05
2023-04-27T04:14:38.044Z,14.06
2023-04-27T04:14:59.847Z,14.06
2023-04-27T04:15:23.195Z,14.05
2023-04-27T04:15:47.110Z,14.05
2023-04-27T04:16:09.870Z,14.02
2023-04-27T04:16:33.578Z,13.99
2023-04-27T04:16:56.905Z,13.96
2023-04-27T04:17:18.669Z,13.95
2023-04-27T04:17:41.596Z,13.96
2023-04-27T04:18:03.724Z,13.97
2023-04-27T04:18:26.481Z,13.94
2023-04-27T04:18:48.968Z,13.92
2023-04-27T04:19:11.321Z,13.91
2023-04-27T04:19:34.129Z,13.90
2023-04-27T04:19:57.202Z,13.91
2023-04-27T04:20:18.896Z,13.79
2023-04-27T04:20:40.832Z,13.94
2023-04-27T04:21:03.285Z,13.93
2023-04-27T04:21:25.977Z,13.97
2023-04-27T04:21:48.151Z,13.97
2023-04-27T04:22:09.806Z,13.95
2023-04-27T04:22:31.418Z,13.78
2023-04-27T04:22:54.095Z,13.94
2023-04-27T04:23:15.866Z,13.96
2023-04-27T04:23:38.030Z,13.95
2023-04-27T04:23:59.793Z,13.98
2023-04-27T04:24:22.618Z,13.99
2023-04-27T04:24:44.588Z,14.00
2023-04-27T04:25:07.246Z,14.00
2023-04-27T04:25:30.284Z,13.99
2023-04-27T04:25:52.295Z,14.02
2023-04-27T04:26:16.687Z,14.03
2023-04-27T04:26:39.395Z,14.03
2023-04-27T04:27:01.037Z,14.03
2023-04-27T04:27:22.702Z,14.03
2023-04-27T04:27:44.653Z,13.99
2023-04-27T04:28:07.418Z,14.01
2023-04-27T04:28:29.153Z,14.00
2023-04-27T04:28:50.755Z,14.01
2023-04-27T04:29:12.673Z,13.97
2023-04-27T04:29:34.562Z,13.77
2023-04-27T04:30:00.101Z,13.94
2023-04-27T04:30:23.212Z,13.98
2023-04-27T04:30:46.340Z,13.97
2023-04-27T04:31:09.621Z,13.97
2023-04-27T04:31:33.510Z,14.00
2023-04-27T04:31:56.171Z,13.99
2023-04-27T04:32:19.343Z,13.99
2023-04-27T04:32:41.569Z,13.97
2023-04-27T04:33:05.471Z,13.96
2023-04-27T04:33:27.227Z,13.99
2023-04-27T04:33:50.053Z,14.01
2023-04-27T04:34:11.663Z,14.05
2023-04-27T04:34:33.605Z,14.04
2023-04-27T04:34:56.692Z,14.01
2023-04-27T04:35:19.714Z,13.99
2023-04-27T04:35:41.497Z,13.75
2023-04-27T04:36:04.984Z,14.02
2023-04-27T04:36:28.477Z,14.03
2023-04-27T04:36:51.721Z,14.06
2023-04-27T04:37:14.715Z,14.07
2023-04-27T04:37:36.612Z,14.07
2023-04-27T04:37:58.406Z,14.08
2023-04-27T04:38:23.378Z,14.09
2023-04-27T04:38:45.569Z,14.08
2023-04-27T04:39:07.316Z,13.89
2023-04-27T04:39:31.090Z,14.06
2023-04-27T04:39:53.768Z,14.06
2023-04-27T04:40:15.709Z,14.01
2023-04-27T04:40:41.034Z,14.09
2023-04-27T04:41:03.683Z,14.07
2023-04-27T04:41:28.077Z,14.07
2023-04-27T04:41:49.914Z,14.06
2023-04-27T04:42:12.608Z,14.08
2023-04-27T04:42:37.020Z,14.09
2023-04-27T04:42:58.962Z,14.11
2023-04-27T04:43:21.470Z,14.11
2023-04-27T04:43:43.175Z,14.08
2023-04-27T04:44:05.424Z,14.08
2023-04-27T04:44:28.081Z,14.07
2023-04-27T04:44:49.998Z,14.06
2023-04-27T04:45:11.801Z,14.05
2023-04-27T04:45:33.411Z,13.97
2023-04-27T04:45:56.080Z,14.05
2023-04-27T04:46:17.749Z,14.04
2023-04-27T04:46:39.421Z,14.07
2023-04-27T04:47:02.085Z,14.04
2023-04-27T04:47:23.827Z,14.11
2023-04-27T04:47:47.364Z,14.10
2023-04-27T04:48:10.286Z,14.12
2023-04-27T04:48:33.075Z,13.96
2023-04-27T04:48:55.065Z,14.11
2023-04-27T04:49:18.040Z,14.08
2023-04-27T04:49:39.936Z,14.08
2023-04-27T04:50:02.644Z,14.12
2023-04-27T04:50:26.920Z,14.11
2023-04-27T04:50:48.877Z,14.09
2023-04-27T04:51:10.633Z,14.05